sensor_id;sensor_type;location;lat;lon;timestamp;pressure;altitude;pressure_sealevel;temperature;humidity
75747;BME280;64363;52.198;21.020;2023-03-01T00:01:10;101770.28;;;-1.56;79.79
75747;BME280;64363;52.198;21.020;2023-03-01T00:03:36;101770.97;;;-1.62;80.31
75747;BME280;64363;52.198;21.020;2023-03-01T00:06:02;101770.06;;;-1.62;79.92
75747;BME280;64363;52.198;21.020;2023-03-01T00:08:29;101767.13;;;-1.70;80.51
75747;BME280;64363;52.198;21.020;2023-03-01T00:11:12;101770.69;;;-1.68;80.06
75747;BME280;64363;52.198;21.020;2023-03-01T00:13:38;101771.59;;;-1.67;80.21
75747;BME280;64363;52.198;21.020;2023-03-01T00:16:07;101771.41;;;-1.72;80.12
75747;BME280;64363;52.198;21.020;2023-03-01T00:18:34;101756.41;;;-1.76;80.19
75747;BME280;64363;52.198;21.020;2023-03-01T00:21:00;101763.25;;;-1.79;81.12
75747;BME280;64363;52.198;21.020;2023-03-01T00:23:26;101769.47;;;-1.77;81.36
75747;BME280;64363;52.198;21.020;2023-03-01T00:25:52;101765.75;;;-1.82;81.18
75747;BME280;64363;52.198;21.020;2023-03-01T00:28:18;101759.44;;;-1.88;81.53
75747;BME280;64363;52.198;21.020;2023-03-01T00:30:44;101761.22;;;-1.86;81.47
75747;BME280;64363;52.198;21.020;2023-03-01T00:33:10;101756.59;;;-1.94;81.70
75747;BME280;64363;52.198;21.020;2023-03-01T00:35:36;101749.50;;;-1.96;82.16
75747;BME280;64363;52.198;21.020;2023-03-01T00:38:01;101746.03;;;-1.97;81.99
75747;BME280;64363;52.198;21.020;2023-03-01T00:40:29;101744.13;;;-2.01;81.95
75747;BME280;64363;52.198;21.020;2023-03-01T00:42:55;101745.88;;;-2.00;82.06
75747;BME280;64363;52.198;21.020;2023-03-01T00:45:21;101755.44;;;-2.00;81.88
75747;BME280;64363;52.198;21.020;2023-03-01T00:47:48;101756.22;;;-2.03;82.52
75747;BME280;64363;52.198;21.020;2023-03-01T00:50:14;101754.41;;;-2.04;82.37
75747;BME280;64363;52.198;21.020;2023-03-01T00:52:40;101745.63;;;-2.06;82.36
75747;BME280;64363;52.198;21.020;2023-03-01T00:55:06;101745.44;;;-2.10;81.97
75747;BME280;64363;52.198;21.020;2023-03-01T00:57:32;101746.47;;;-2.07;81.96
75747;BME280;64363;52.198;21.020;2023-03-01T00:59:59;101750.03;;;-2.05;82.39
75747;BME280;64363;52.198;21.020;2023-03-01T01:02:25;101739.59;;;-2.05;82.02
75747;BME280;64363;52.198;21.020;2023-03-01T01:04:51;101737.09;;;-2.02;81.70
75747;BME280;64363;52.198;21.020;2023-03-01T01:07:17;101736.50;;;-1.95;82.12
75747;BME280;64363;52.198;21.020;2023-03-01T01:09:46;101724.34;;;-1.94;81.94
75747;BME280;64363;52.198;21.020;2023-03-01T01:12:12;101725.22;;;-1.94;81.53
75747;BME280;64363;52.198;21.020;2023-03-01T01:14:38;101713.69;;;-1.99;82.14
75747;BME280;64363;52.198;21.020;2023-03-01T01:17:04;101719.91;;;-1.97;81.24
75747;BME280;64363;52.198;21.020;2023-03-01T01:19:30;101716.50;;;-1.94;81.93
75747;BME280;64363;52.198;21.020;2023-03-01T01:21:56;101717.41;;;-1.94;81.79
75747;BME280;64363;52.198;21.020;2023-03-01T01:24:22;101719.03;;;-1.96;82.15
75747;BME280;64363;52.198;21.020;2023-03-01T01:26:48;101701.59;;;-1.97;81.65
75747;BME280;64363;52.198;21.020;2023-03-01T01:29:14;101711.28;;;-1.94;81.26
75747;BME280;64363;52.198;21.020;2023-03-01T01:31:41;101710.31;;;-1.96;81.44
75747;BME280;64363;52.198;21.020;2023-03-01T01:34:10;101710.44;;;-1.93;81.16
75747;BME280;64363;52.198;21.020;2023-03-01T01:36:37;101711.31;;;-1.93;82.26
75747;BME280;64363;52.198;21.020;2023-03-01T01:39:03;101706.94;;;-1.94;81.08
75747;BME280;64363;52.198;21.020;2023-03-01T01:41:30;101699.09;;;-1.94;81.24
75747;BME280;64363;52.198;21.020;2023-03-01T01:44:20;101706.97;;;-1.92;81.06
75747;BME280;64363;52.198;21.020;2023-03-01T01:51:59;101705.38;;;-1.89;81.37
75747;BME280;64363;52.198;21.020;2023-03-01T01:54:40;101693.97;;;-1.91;81.61
75747;BME280;64363;52.198;21.020;2023-03-01T01:57:11;101681.69;;;-1.93;81.59
75747;BME280;64363;52.198;21.020;2023-03-01T01:59:39;101687.97;;;-1.88;81.69
75747;BME280;64363;52.198;21.020;2023-03-01T02:02:06;101691.44;;;-1.89;81.30
75747;BME280;64363;52.198;21.020;2023-03-01T02:04:32;101686.94;;;-1.93;82.22
75747;BME280;64363;52.198;21.020;2023-03-01T02:07:03;101678.09;;;-1.97;81.41
75747;BME280;64363;52.198;21.020;2023-03-01T02:09:31;101682.41;;;-1.97;82.23
75747;BME280;64363;52.198;21.020;2023-03-01T02:11:58;101677.81;;;-2.03;81.45
75747;BME280;64363;52.198;21.020;2023-03-01T02:14:24;101689.53;;;-1.93;81.61
75747;BME280;64363;52.198;21.020;2023-03-01T02:16:49;101689.47;;;-1.95;81.38
75747;BME280;64363;52.198;21.020;2023-03-01T02:22:20;101691.16;;;-1.97;81.33
75747;BME280;64363;52.198;21.020;2023-03-01T02:27:13;101684.06;;;-1.99;81.67
75747;BME280;64363;52.198;21.020;2023-03-01T02:29:39;101681.41;;;-2.01;82.11
75747;BME280;64363;52.198;21.020;2023-03-01T02:32:05;101678.63;;;-2.04;82.63
75747;BME280;64363;52.198;21.020;2023-03-01T02:34:32;101668.25;;;-2.02;82.80
75747;BME280;64363;52.198;21.020;2023-03-01T02:37:05;101663.69;;;-2.08;82.96
75747;BME280;64363;52.198;21.020;2023-03-01T02:39:39;101667.25;;;-2.06;82.58
75747;BME280;64363;52.198;21.020;2023-03-01T02:42:11;101669.69;;;-2.10;83.15
75747;BME280;64363;52.198;21.020;2023-03-01T02:44:38;101665.28;;;-2.11;82.87
75747;BME280;64363;52.198;21.020;2023-03-01T02:47:04;101665.06;;;-2.17;83.38
75747;BME280;64363;52.198;21.020;2023-03-01T02:49:34;101661.53;;;-2.18;83.35
75747;BME280;64363;52.198;21.020;2023-03-01T02:57:27;101661.53;;;-2.18;82.85
75747;BME280;64363;52.198;21.020;2023-03-01T03:00:02;101668.56;;;-2.17;82.33
75747;BME280;64363;52.198;21.020;2023-03-01T03:02:32;101663.34;;;-2.17;82.49
75747;BME280;64363;52.198;21.020;2023-03-01T03:05:05;101659.88;;;-2.16;83.16
75747;BME280;64363;52.198;21.020;2023-03-01T03:07:33;101645.88;;;-2.18;83.30
75747;BME280;64363;52.198;21.020;2023-03-01T03:10:00;101631.84;;;-2.20;82.50
75747;BME280;64363;52.198;21.020;2023-03-01T03:12:26;101643.84;;;-2.25;82.65
75747;BME280;64363;52.198;21.020;2023-03-01T03:14:52;101637.59;;;-2.28;82.79
75747;BME280;64363;52.198;21.020;2023-03-01T03:17:17;101634.94;;;-2.30;83.65
75747;BME280;64363;52.198;21.020;2023-03-01T03:19:43;101636.56;;;-2.32;82.99
75747;BME280;64363;52.198;21.020;2023-03-01T03:22:11;101634.09;;;-2.29;83.22
75747;BME280;64363;52.198;21.020;2023-03-01T03:24:37;101628.03;;;-2.28;82.89
75747;BME280;64363;52.198;21.020;2023-03-01T03:27:04;101619.38;;;-2.27;82.50
75747;BME280;64363;52.198;21.020;2023-03-01T03:29:31;101621.16;;;-2.26;82.94
75747;BME280;64363;52.198;21.020;2023-03-01T03:31:56;101621.16;;;-2.26;82.22
75747;BME280;64363;52.198;21.020;2023-03-01T03:34:22;101615.13;;;-2.25;82.87
75747;BME280;64363;52.198;21.020;2023-03-01T03:36:53;101618.75;;;-2.21;81.76
75747;BME280;64363;52.198;21.020;2023-03-01T03:39:26;101610.94;;;-2.20;81.77
75747;BME280;64363;52.198;21.020;2023-03-01T03:41:53;101617.25;;;-2.15;81.93
75747;BME280;64363;52.198;21.020;2023-03-01T03:44:19;101622.47;;;-2.15;82.12
75747;BME280;64363;52.198;21.020;2023-03-01T03:46:45;101625.19;;;-2.12;81.97
75747;BME280;64363;52.198;21.020;2023-03-01T03:49:11;101635.78;;;-2.09;81.73
75747;BME280;64363;52.198;21.020;2023-03-01T03:51:36;101628.81;;;-2.08;80.93
75747;BME280;64363;52.198;21.020;2023-03-01T03:54:02;101624.38;;;-2.11;81.79
75747;BME280;64363;52.198;21.020;2023-03-01T03:56:28;101604.19;;;-2.15;80.92
75747;BME280;64363;52.198;21.020;2023-03-01T03:58:54;101603.25;;;-2.17;80.98
75747;BME280;64363;52.198;21.020;2023-03-01T04:01:20;101603.38;;;-2.14;81.60
75747;BME280;64363;52.198;21.020;2023-03-01T04:03:45;101605.16;;;-2.13;81.42
75747;BME280;64363;52.198;21.020;2023-03-01T04:06:14;101612.13;;;-2.12;81.09
75747;BME280;64363;52.198;21.020;2023-03-01T04:08:40;101596.47;;;-2.12;80.81
75747;BME280;64363;52.198;21.020;2023-03-01T04:11:06;101598.31;;;-2.09;81.51
75747;BME280;64363;52.198;21.020;2023-03-01T04:13:53;101593.13;;;-2.08;80.66
75747;BME280;64363;52.198;21.020;2023-03-01T04:16:19;101591.22;;;-2.12;80.54
75747;BME280;64363;52.198;21.020;2023-03-01T04:18:45;101589.59;;;-2.10;80.88
75747;BME280;64363;52.198;21.020;2023-03-01T04:21:11;101596.47;;;-2.12;81.41
75747;BME280;64363;52.198;21.020;2023-03-01T04:23:37;101593.84;;;-2.12;81.59
75747;BME280;64363;52.198;21.020;2023-03-01T04:26:03;101607.75;;;-2.13;81.10
75747;BME280;64363;52.198;21.020;2023-03-01T04:28:34;101608.63;;;-2.12;81.26
75747;BME280;64363;52.198;21.020;2023-03-01T04:31:07;101601.88;;;-2.07;80.35
75747;BME280;64363;52.198;21.020;2023-03-01T04:33:40;101601.22;;;-2.02;80.01
75747;BME280;64363;52.198;21.020;2023-03-01T04:36:07;101597.31;;;-2.13;81.36
75747;BME280;64363;52.198;21.020;2023-03-01T04:38:35;101589.34;;;-2.16;81.04
75747;BME280;64363;52.198;21.020;2023-03-01T04:41:06;101579.75;;;-2.17;81.82
75747;BME280;64363;52.198;21.020;2023-03-01T04:43:33;101585.78;;;-2.18;81.62
75747;BME280;64363;52.198;21.020;2023-03-01T04:46:01;101584.81;;;-2.20;81.79
75747;BME280;64363;52.198;21.020;2023-03-01T04:48:29;101583.06;;;-2.21;81.58
75747;BME280;64363;52.198;21.020;2023-03-01T04:50:54;101579.59;;;-2.20;81.53
75747;BME280;64363;52.198;21.020;2023-03-01T04:53:20;101574.34;;;-2.21;81.68
75747;BME280;64363;52.198;21.020;2023-03-01T04:55:46;101572.63;;;-2.21;81.23
75747;BME280;64363;52.198;21.020;2023-03-01T04:58:11;101567.22;;;-2.25;82.09
75747;BME280;64363;52.198;21.020;2023-03-01T05:00:37;101558.47;;;-2.26;81.51
75747;BME280;64363;52.198;21.020;2023-03-01T05:03:03;101562.81;;;-2.26;81.96
75747;BME280;64363;52.198;21.020;2023-03-01T05:05:35;101566.31;;;-2.26;82.48
75747;BME280;64363;52.198;21.020;2023-03-01T05:08:06;101569.03;;;-2.23;81.83
75747;BME280;64363;52.198;21.020;2023-03-01T05:10:34;101557.69;;;-2.23;82.10
75747;BME280;64363;52.198;21.020;2023-03-01T05:13:01;101568.25;;;-2.20;82.13
75747;BME280;64363;52.198;21.020;2023-03-01T05:15:29;101574.34;;;-2.21;81.75
75747;BME280;64363;52.198;21.020;2023-03-01T05:17:57;101572.63;;;-2.21;82.27
75747;BME280;64363;52.198;21.020;2023-03-01T05:20:28;101576.81;;;-2.24;81.84
75747;BME280;64363;52.198;21.020;2023-03-01T05:22:57;101586.50;;;-2.22;81.99
75747;BME280;64363;52.198;21.020;2023-03-01T05:25:24;101580.38;;;-2.22;81.44
75747;BME280;64363;52.198;21.020;2023-03-01T05:27:50;101576.06;;;-2.22;81.97
75747;BME280;64363;52.198;21.020;2023-03-01T05:30:17;101588.28;;;-2.21;81.69
75747;BME280;64363;52.198;21.020;2023-03-01T05:32:45;101597.06;;;-2.19;81.95
75747;BME280;64363;52.198;21.020;2023-03-01T05:35:16;101597.78;;;-2.23;81.74
75747;BME280;64363;52.198;21.020;2023-03-01T05:37:44;101604.19;;;-2.15;81.39
75747;BME280;64363;52.198;21.020;2023-03-01T05:40:13;101602.53;;;-2.13;81.93
75747;BME280;64363;52.198;21.020;2023-03-01T05:42:47;101608.69;;;-2.11;81.59
75747;BME280;64363;52.198;21.020;2023-03-01T05:45:13;101608.81;;;-2.08;81.61
75747;BME280;64363;52.198;21.020;2023-03-01T05:47:40;101611.78;;;-1.99;80.83
75747;BME280;64363;52.198;21.020;2023-03-01T05:50:15;101613.31;;;-2.04;81.33
75747;BME280;64363;52.198;21.020;2023-03-01T05:52:49;101614.31;;;-2.00;80.85
75747;BME280;64363;52.198;21.020;2023-03-01T05:55:17;101615.38;;;-1.97;81.00
75747;BME280;64363;52.198;21.020;2023-03-01T05:57:43;101618.91;;;-1.95;81.34
75747;BME280;64363;52.198;21.020;2023-03-01T06:00:10;101614.97;;;-1.83;79.87
75747;BME280;64363;52.198;21.020;2023-03-01T06:02:36;101621.75;;;-1.89;80.49
75747;BME280;64363;52.198;21.020;2023-03-01T06:05:07;101617.47;;;-1.86;80.77
75747;BME280;64363;52.198;21.020;2023-03-01T06:07:34;101606.06;;;-1.89;80.81
75747;BME280;64363;52.198;21.020;2023-03-01T06:10:01;101608.63;;;-1.90;80.46
75747;BME280;64363;52.198;21.020;2023-03-01T06:12:30;101602.50;;;-1.91;81.03
75747;BME280;64363;52.198;21.020;2023-03-01T06:14:56;101614.50;;;-1.73;81.93
75747;BME280;64363;52.198;21.020;2023-03-01T06:17:22;101610.66;;;-1.59;80.24
75747;BME280;64363;52.198;21.020;2023-03-01T06:19:47;101595.41;;;-1.71;79.30
75747;BME280;64363;52.198;21.020;2023-03-01T06:22:13;101603.16;;;-1.74;79.28
75747;BME280;64363;52.198;21.020;2023-03-01T06:24:39;101597.97;;;-1.72;79.91
75747;BME280;64363;52.198;21.020;2023-03-01T06:27:04;101609.50;;;-1.67;79.56
75747;BME280;64363;52.198;21.020;2023-03-01T06:29:30;101602.72;;;-1.62;79.71
75747;BME280;64363;52.198;21.020;2023-03-01T06:31:56;101608.06;;;-1.59;79.55
75747;BME280;64363;52.198;21.020;2023-03-01T06:34:22;101606.56;;;-1.53;78.94
75747;BME280;64363;52.198;21.020;2023-03-01T06:36:47;101610.94;;;-1.52;79.17
75747;BME280;64363;52.198;21.020;2023-03-01T06:39:13;101606.84;;;-1.45;79.56
75747;BME280;64363;52.198;21.020;2023-03-01T06:41:39;101614.28;;;-1.32;79.29
75747;BME280;64363;52.198;21.020;2023-03-01T06:44:05;101610.84;;;-1.31;79.48
75747;BME280;64363;52.198;21.020;2023-03-01T06:46:30;101611.81;;;-1.29;78.13
75747;BME280;64363;52.198;21.020;2023-03-01T06:48:56;101611.19;;;-1.22;78.90
75747;BME280;64363;52.198;21.020;2023-03-01T06:51:22;101606.09;;;-1.17;78.66
75747;BME280;64363;52.198;21.020;2023-03-01T06:53:48;101609.63;;;-1.17;78.21
75747;BME280;64363;52.198;21.020;2023-03-01T06:56:13;101608.59;;;-1.20;78.43
75747;BME280;64363;52.198;21.020;2023-03-01T06:58:40;101603.44;;;-1.19;78.59
75747;BME280;64363;52.198;21.020;2023-03-01T07:01:09;101594.75;;;-1.18;78.63
75747;BME280;64363;52.198;21.020;2023-03-01T07:03:34;101604.75;;;-1.06;77.73
75747;BME280;64363;52.198;21.020;2023-03-01T07:06:00;101605.00;;;-0.99;77.50
75747;BME280;64363;52.198;21.020;2023-03-01T07:08:26;101609.69;;;-0.90;77.84
75747;BME280;64363;52.198;21.020;2023-03-01T07:10:56;101608.94;;;-0.86;77.03
75747;BME280;64363;52.198;21.020;2023-03-01T07:13:22;101616.13;;;-0.80;77.32
75747;BME280;64363;52.198;21.020;2023-03-01T07:15:48;101605.75;;;-0.77;77.32
75747;BME280;64363;52.198;21.020;2023-03-01T07:18:13;101618.44;;;-0.63;76.58
75747;BME280;64363;52.198;21.020;2023-03-01T07:20:39;101607.34;;;-0.56;76.04
75747;BME280;64363;52.198;21.020;2023-03-01T07:23:05;101608.22;;;-0.55;75.92
75747;BME280;64363;52.198;21.020;2023-03-01T07:25:31;101599.72;;;-0.48;75.71
75747;BME280;64363;52.198;21.020;2023-03-01T07:27:58;101598.22;;;-0.40;75.03
75747;BME280;64363;52.198;21.020;2023-03-01T07:30:24;101589.59;;;-0.37;75.15
75747;BME280;64363;52.198;21.020;2023-03-01T07:32:53;101594.03;;;-0.35;75.29
75747;BME280;64363;52.198;21.020;2023-03-01T07:35:19;101579.44;;;-0.27;74.39
75747;BME280;64363;52.198;21.020;2023-03-01T07:37:44;101578.03;;;-0.16;74.58
75747;BME280;64363;52.198;21.020;2023-03-01T07:40:11;101576.53;;;-0.08;74.09
75747;BME280;64363;52.198;21.020;2023-03-01T07:42:36;101574.22;;;0.02;73.63
75747;BME280;64363;52.198;21.020;2023-03-01T07:45:04;101579.88;;;0.15;73.58
75747;BME280;64363;52.198;21.020;2023-03-01T07:47:30;101586.72;;;0.10;73.17
75747;BME280;64363;52.198;21.020;2023-03-01T07:49:56;101591.13;;;0.11;72.66
75747;BME280;64363;52.198;21.020;2023-03-01T07:52:21;101586.03;;;0.16;72.80
75747;BME280;64363;52.198;21.020;2023-03-01T07:54:47;101576.72;;;0.27;73.33
75747;BME280;64363;52.198;21.020;2023-03-01T07:57:13;101588.47;;;0.41;72.16
75747;BME280;64363;52.198;21.020;2023-03-01T07:59:38;101587.09;;;0.52;71.88
75747;BME280;64363;52.198;21.020;2023-03-01T08:02:05;101585.44;;;0.57;71.46
75747;BME280;64363;52.198;21.020;2023-03-01T08:04:32;101583.16;;;0.69;71.06
75747;BME280;64363;52.198;21.020;2023-03-01T08:06:58;101584.31;;;0.79;70.40
75747;BME280;64363;52.198;21.020;2023-03-01T08:09:24;101590.78;;;0.91;70.49
75747;BME280;64363;52.198;21.020;2023-03-01T08:11:50;101583.13;;;1.01;70.17
75747;BME280;64363;52.198;21.020;2023-03-01T08:14:16;101580.06;;;1.17;70.04
75747;BME280;64363;52.198;21.020;2023-03-01T08:16:42;101581.44;;;1.37;69.54
75747;BME280;64363;52.198;21.020;2023-03-01T08:19:10;101598.28;;;1.45;69.15
75747;BME280;64363;52.198;21.020;2023-03-01T08:21:36;101584.25;;;1.45;68.89
75747;BME280;64363;52.198;21.020;2023-03-01T08:24:04;101592.31;;;1.51;68.85
75747;BME280;64363;52.198;21.020;2023-03-01T08:26:31;101592.38;;;1.54;68.84
75747;BME280;64363;52.198;21.020;2023-03-01T08:28:57;101597.03;;;1.65;68.63
75747;BME280;64363;52.198;21.020;2023-03-01T08:31:27;101590.97;;;1.68;69.04
75747;BME280;64363;52.198;21.020;2023-03-01T08:34:00;101590.34;;;1.78;68.93
75747;BME280;64363;52.198;21.020;2023-03-01T08:36:29;101576.56;;;1.88;68.52
75747;BME280;64363;52.198;21.020;2023-03-01T08:38:55;101578.63;;;2.03;68.23
75747;BME280;64363;52.198;21.020;2023-03-01T08:41:21;101581.56;;;2.16;67.79
75747;BME280;64363;52.198;21.020;2023-03-01T08:43:47;101572.91;;;2.20;67.57
75747;BME280;64363;52.198;21.020;2023-03-01T08:46:13;101573.00;;;2.26;67.71
75747;BME280;64363;52.198;21.020;2023-03-01T08:48:39;101577.31;;;2.23;67.48
75747;BME280;64363;52.198;21.020;2023-03-01T08:51:18;101582.25;;;2.08;67.76
75747;BME280;64363;52.198;21.020;2023-03-01T08:53:44;101585.06;;;2.17;68.12
75747;BME280;64363;52.198;21.020;2023-03-01T08:56:11;101589.63;;;2.24;67.87
75747;BME280;64363;52.198;21.020;2023-03-01T08:58:37;101584.78;;;2.45;67.15
75747;BME280;64363;52.198;21.020;2023-03-01T09:01:10;101588.56;;;2.56;67.34
75747;BME280;64363;52.198;21.020;2023-03-01T09:03:36;101591.41;;;2.67;66.89
75747;BME280;64363;52.198;21.020;2023-03-01T09:06:03;101593.09;;;2.63;67.38
75747;BME280;64363;52.198;21.020;2023-03-01T09:08:30;101586.06;;;2.64;66.74
75747;BME280;64363;52.198;21.020;2023-03-01T09:10:55;101591.41;;;2.67;67.37
75747;BME280;64363;52.198;21.020;2023-03-01T09:13:21;101592.38;;;2.72;67.81
75747;BME280;64363;52.198;21.020;2023-03-01T09:15:50;101591.59;;;2.77;67.58
75747;BME280;64363;52.198;21.020;2023-03-01T09:18:16;101590.78;;;2.81;67.51
75747;BME280;64363;52.198;21.020;2023-03-01T09:20:41;101596.16;;;2.85;67.50
75747;BME280;64363;52.198;21.020;2023-03-01T09:23:07;101587.53;;;2.95;67.07
75747;BME280;64363;52.198;21.020;2023-03-01T09:25:34;101578.22;;;3.13;66.54
75747;BME280;64363;52.198;21.020;2023-03-01T09:28:00;101570.19;;;3.06;66.53
75747;BME280;64363;52.198;21.020;2023-03-01T09:30:26;101573.16;;;3.24;66.17
75747;BME280;64363;52.198;21.020;2023-03-01T09:32:52;101572.47;;;3.37;65.76
75747;BME280;64363;52.198;21.020;2023-03-01T09:35:17;101559.28;;;3.37;66.12
75747;BME280;64363;52.198;21.020;2023-03-01T09:37:45;101556.72;;;3.42;65.96
75747;BME280;64363;52.198;21.020;2023-03-01T09:40:17;101562.25;;;3.55;65.33
75747;BME280;64363;52.198;21.020;2023-03-01T09:42:59;101553.38;;;3.50;65.10
75747;BME280;64363;52.198;21.020;2023-03-01T09:45:34;101557.78;;;3.51;66.07
75747;BME280;64363;52.198;21.020;2023-03-01T09:48:02;101558.47;;;3.41;66.55
75747;BME280;64363;52.198;21.020;2023-03-01T09:50:34;101554.16;;;3.45;66.37
75747;BME280;64363;52.198;21.020;2023-03-01T09:53:05;101549.00;;;3.52;65.22
75747;BME280;64363;52.198;21.020;2023-03-01T09:56:00;101553.56;;;3.62;65.28
75747;BME280;64363;52.198;21.020;2023-03-01T09:58:51;101548.38;;;3.68;64.79
75747;BME280;64363;52.198;21.020;2023-03-01T10:01:27;101545.75;;;3.68;65.07
75747;BME280;64363;52.198;21.020;2023-03-01T10:06:45;101538.94;;;3.84;64.76
75747;BME280;64363;52.198;21.020;2023-03-01T10:09:16;101533.84;;;3.96;64.82
75747;BME280;64363;52.198;21.020;2023-03-01T10:11:46;101528.34;;;3.83;65.14
75747;BME280;64363;52.198;21.020;2023-03-01T10:14:36;101518.16;;;4.10;64.83
75747;BME280;64363;52.198;21.020;2023-03-01T10:17:08;101517.56;;;4.29;62.46
75747;BME280;64363;52.198;21.020;2023-03-01T10:19:44;101516.97;;;4.57;61.48
75747;BME280;64363;52.198;21.020;2023-03-01T10:22:16;101504.84;;;4.73;61.07
75747;BME280;64363;52.198;21.020;2023-03-01T10:24:43;101501.88;;;5.33;60.04
75747;BME280;64363;52.198;21.020;2023-03-01T10:27:21;101497.72;;;5.75;58.66
75747;BME280;64363;52.198;21.020;2023-03-01T10:32:36;101504.34;;;7.63;52.93
75747;BME280;64363;52.198;21.020;2023-03-01T10:35:35;101513.19;;;7.64;52.33
75747;BME280;64363;52.198;21.020;2023-03-01T10:38:10;101501.72;;;7.36;53.39
75747;BME280;64363;52.198;21.020;2023-03-01T10:40:50;101499.97;;;7.27;53.98
75747;BME280;64363;52.198;21.020;2023-03-01T10:43:16;101499.00;;;6.66;55.27
75747;BME280;64363;52.198;21.020;2023-03-01T10:45:43;101503.28;;;6.23;57.20
75747;BME280;64363;52.198;21.020;2023-03-01T10:50:41;101501.13;;;5.55;59.29
75747;BME280;64363;52.198;21.020;2023-03-01T10:53:29;101490.38;;;5.34;60.98
75747;BME280;64363;52.198;21.020;2023-03-01T10:56:00;101491.81;;;4.93;61.73
75747;BME280;64363;52.198;21.020;2023-03-01T10:58:26;101496.22;;;4.92;62.15
75747;BME280;64363;52.198;21.020;2023-03-01T11:00:53;101493.44;;;4.79;62.49
75747;BME280;64363;52.198;21.020;2023-03-01T11:03:25;101491.78;;;4.90;62.56
75747;BME280;64363;52.198;21.020;2023-03-01T11:08:36;101492.78;;;5.04;62.33
75747;BME280;64363;52.198;21.020;2023-03-01T11:11:31;101491.97;;;5.11;62.39
75747;BME280;64363;52.198;21.020;2023-03-01T11:16:40;101486.69;;;5.11;62.05
75747;BME280;64363;52.198;21.020;2023-03-01T11:21:38;101485.97;;;5.29;61.49
75747;BME280;64363;52.198;21.020;2023-03-01T11:24:09;101475.56;;;5.56;60.87
75747;BME280;64363;52.198;21.020;2023-03-01T11:26:40;101467.72;;;5.73;60.82
75747;BME280;64363;52.198;21.020;2023-03-01T11:29:15;101469.53;;;5.80;61.30
75747;BME280;64363;52.198;21.020;2023-03-01T11:31:44;101460.66;;;5.69;60.77
75747;BME280;64363;52.198;21.020;2023-03-01T11:34:19;101476.38;;;5.47;62.11
75747;BME280;64363;52.198;21.020;2023-03-01T11:37:02;101463.16;;;5.50;61.57
75747;BME280;64363;52.198;21.020;2023-03-01T11:39:36;101471.13;;;5.49;61.64
75747;BME280;64363;52.198;21.020;2023-03-01T11:42:12;101456.75;;;5.15;63.14
75747;BME280;64363;52.198;21.020;2023-03-01T11:44:40;101458.44;;;5.04;62.58
75747;BME280;64363;52.198;21.020;2023-03-01T11:55:23;101456.06;;;5.37;63.28
75747;BME280;64363;52.198;21.020;2023-03-01T11:58:22;101456.22;;;5.64;61.73
75747;BME280;64363;52.198;21.020;2023-03-01T12:25:45;101461.00;;;6.50;59.86
75747;BME280;64363;52.198;21.020;2023-03-01T12:31:43;101453.94;;;6.49;60.63
75747;BME280;64363;52.198;21.020;2023-03-01T12:38:24;101438.97;;;6.68;60.59
75747;BME280;64363;52.198;21.020;2023-03-01T12:40:25;101441.59;;;6.74;60.01
75747;BME280;64363;52.198;21.020;2023-03-01T12:51:11;101432.69;;;6.28;61.98
75747;BME280;64363;52.198;21.020;2023-03-01T12:53:42;101430.94;;;6.39;61.93
75747;BME280;64363;52.198;21.020;2023-03-01T12:56:11;101425.66;;;6.54;61.26
75747;BME280;64363;52.198;21.020;2023-03-01T12:58:48;101420.41;;;6.70;61.17
75747;BME280;64363;52.198;21.020;2023-03-01T13:06:53;101417.75;;;6.88;60.34
75747;BME280;64363;52.198;21.020;2023-03-01T13:11:53;101412.44;;;6.95;60.99
75747;BME280;64363;52.198;21.020;2023-03-01T13:16:54;101412.47;;;7.01;60.71
75747;BME280;64363;52.198;21.020;2023-03-01T13:19:22;101416.00;;;7.13;60.48
75747;BME280;64363;52.198;21.020;2023-03-01T13:21:50;101407.97;;;7.38;60.48
75747;BME280;64363;52.198;21.020;2023-03-01T13:24:36;101407.03;;;7.68;59.11
75747;BME280;64363;52.198;21.020;2023-03-01T13:35:02;101398.38;;;8.89;55.75
75747;BME280;64363;52.198;21.020;2023-03-01T13:37:37;101393.31;;;9.52;53.85
75747;BME280;64363;52.198;21.020;2023-03-01T13:42:55;101381.97;;;11.21;48.61
75747;BME280;64363;52.198;21.020;2023-03-01T13:45:40;101382.78;;;11.25;48.47
75747;BME280;64363;52.198;21.020;2023-03-01T13:48:22;101382.28;;;11.03;49.39
75747;BME280;64363;52.198;21.020;2023-03-01T13:50:57;101372.53;;;11.50;48.67
75747;BME280;64363;52.198;21.020;2023-03-01T13:53:26;101375.44;;;11.36;48.10
75747;BME280;64363;52.198;21.020;2023-03-01T13:55:56;101369.41;;;11.26;48.73
75747;BME280;64363;52.198;21.020;2023-03-01T13:58:28;101372.06;;;10.77;50.16
75747;BME280;64363;52.198;21.020;2023-03-01T14:00:58;101374.31;;;11.00;50.20
75747;BME280;64363;52.198;21.020;2023-03-01T14:03:25;101364.91;;;11.28;48.60
75747;BME280;64363;52.198;21.020;2023-03-01T14:06:06;101360.09;;;11.01;49.70
75747;BME280;64363;52.198;21.020;2023-03-01T14:08:34;101363.56;;;10.53;50.54
75747;BME280;64363;52.198;21.020;2023-03-01T14:19:20;101361.84;;;10.49;51.03
75747;BME280;64363;52.198;21.020;2023-03-01T14:22:43;101363.03;;;11.34;48.66
75747;BME280;64363;52.198;21.020;2023-03-01T14:24:48;101358.56;;;11.80;47.23
75747;BME280;64363;52.198;21.020;2023-03-01T14:27:15;101355.00;;;12.21;46.18
75747;BME280;64363;52.198;21.020;2023-03-01T14:29:42;101354.28;;;12.14;45.88
75747;BME280;64363;52.198;21.020;2023-03-01T14:32:16;101346.06;;;11.38;47.83
75747;BME280;64363;52.198;21.020;2023-03-01T14:34:46;101356.19;;;10.68;49.71
75747;BME280;64363;52.198;21.020;2023-03-01T14:37:32;101354.47;;;10.06;51.41
75747;BME280;64363;52.198;21.020;2023-03-01T14:39:59;101351.06;;;9.94;52.38
75747;BME280;64363;52.198;21.020;2023-03-01T14:42:33;101345.88;;;9.83;52.61